sensor_id;sensor_type;location;lat;lon;timestamp;P1;durP1;ratioP1;P2;durP2;ratioP2
21472;SDS011;10898;48.072;11.682;2022-07-10T00:01:49;3.30;;;2.95;;
21472;SDS011;10898;48.072;11.682;2022-07-10T00:03:51;5.28;;;2.78;;
21472;SDS011;10898;48.072;11.682;2022-07-10T00:05:55;5.03;;;3.20;;
21472;SDS011;10898;48.072;11.682;2022-07-10T00:07:58;3.50;;;3.20;;
21472;SDS011;10898;48.072;11.682;2022-07-10T00:10:00;5.57;;;3.22;;
21472;SDS011;10898;48.072;11.682;2022-07-10T00:12:02;5.38;;;3.00;;
21472;SDS011;10898;48.072;11.682;2022-07-10T00:14:06;2.67;;;2.47;;
21472;SDS011;10898;48.072;11.682;2022-07-10T00:16:09;3.75;;;3.10;;
21472;SDS011;10898;48.072;11.682;2022-07-10T00:18:11;3.30;;;2.90;;
21472;SDS011;10898;48.072;11.682;2022-07-10T00:20:13;3.00;;;2.70;;
21472;SDS011;10898;48.072;11.682;2022-07-10T00:22:15;4.75;;;3.10;;
21472;SDS011;10898;48.072;11.682;2022-07-10T00:24:18;3.45;;;3.15;;
21472;SDS011;10898;48.072;11.682;2022-07-10T00:26:19;5.83;;;3.17;;
21472;SDS011;10898;48.072;11.682;2022-07-10T00:28:21;5.47;;;3.40;;
21472;SDS011;10898;48.072;11.682;2022-07-10T00:32:26;3.80;;;3.38;;
21472;SDS011;10898;48.072;11.682;2022-07-10T00:34:28;5.53;;;3.03;;
21472;SDS011;10898;48.072;11.682;2022-07-10T00:36:30;3.67;;;3.20;;
21472;SDS011;10898;48.072;11.682;2022-07-10T00:38:32;4.20;;;3.80;;
21472;SDS011;10898;48.072;11.682;2022-07-10T00:40:35;4.57;;;3.53;;
21472;SDS011;10898;48.072;11.682;2022-07-10T00:42:36;3.78;;;3.47;;
21472;SDS011;10898;48.072;11.682;2022-07-10T00:44:39;4.97;;;3.85;;
21472;SDS011;10898;48.072;11.682;2022-07-10T00:46:42;4.50;;;4.10;;
21472;SDS011;10898;48.072;11.682;2022-07-10T00:48:44;4.45;;;4.05;;
21472;SDS011;10898;48.072;11.682;2022-07-10T00:50:46;5.03;;;4.53;;
21472;SDS011;10898;48.072;11.682;2022-07-10T00:52:48;4.45;;;4.05;;
21472;SDS011;10898;48.072;11.682;2022-07-10T00:54:50;7.47;;;4.72;;
21472;SDS011;10898;48.072;11.682;2022-07-10T00:56:52;5.10;;;4.70;;
21472;SDS011;10898;48.072;11.682;2022-07-10T00:58:55;5.28;;;4.72;;
21472;SDS011;10898;48.072;11.682;2022-07-10T01:03:00;5.35;;;4.80;;
21472;SDS011;10898;48.072;11.682;2022-07-10T01:05:02;5.53;;;5.03;;
21472;SDS011;10898;48.072;11.682;2022-07-10T01:07:05;5.97;;;5.47;;
21472;SDS011;10898;48.072;11.682;2022-07-10T01:09:07;5.78;;;5.15;;
21472;SDS011;10898;48.072;11.682;2022-07-10T01:11:10;7.70;;;5.78;;
21472;SDS011;10898;48.072;11.682;2022-07-10T01:15:14;5.43;;;4.95;;
21472;SDS011;10898;48.072;11.682;2022-07-10T01:17:16;6.00;;;5.40;;
21472;SDS011;10898;48.072;11.682;2022-07-10T01:19:19;8.65;;;6.03;;
21472;SDS011;10898;48.072;11.682;2022-07-10T01:23:33;8.32;;;6.55;;
21472;SDS011;10898;48.072;11.682;2022-07-10T01:25:35;5.95;;;5.45;;
21472;SDS011;10898;48.072;11.682;2022-07-10T01:27:37;5.73;;;5.20;;
21472;SDS011;10898;48.072;11.682;2022-07-10T01:29:39;6.30;;;5.80;;
21472;SDS011;10898;48.072;11.682;2022-07-10T01:33:44;6.75;;;5.70;;
21472;SDS011;10898;48.072;11.682;2022-07-10T01:35:49;6.97;;;5.78;;
21472;SDS011;10898;48.072;11.682;2022-07-10T01:37:51;7.07;;;5.60;;
21472;SDS011;10898;48.072;11.682;2022-07-10T01:39:54;6.60;;;5.63;;
21472;SDS011;10898;48.072;11.682;2022-07-10T01:41:56;6.82;;;5.63;;
21472;SDS011;10898;48.072;11.682;2022-07-10T01:43:58;5.65;;;5.25;;
21472;SDS011;10898;48.072;11.682;2022-07-10T01:46:01;5.95;;;5.45;;
21472;SDS011;10898;48.072;11.682;2022-07-10T01:48:04;6.03;;;5.53;;
21472;SDS011;10898;48.072;11.682;2022-07-10T01:50:06;7.10;;;5.38;;
21472;SDS011;10898;48.072;11.682;2022-07-10T01:52:08;6.10;;;5.60;;
21472;SDS011;10898;48.072;11.682;2022-07-10T01:54:11;6.13;;;5.57;;
21472;SDS011;10898;48.072;11.682;2022-07-10T01:56:13;7.13;;;5.57;;
21472;SDS011;10898;48.072;11.682;2022-07-10T01:58:16;6.20;;;5.60;;
21472;SDS011;10898;48.072;11.682;2022-07-10T02:00:18;5.85;;;5.35;;
21472;SDS011;10898;48.072;11.682;2022-07-10T02:02:20;6.53;;;5.93;;
21472;SDS011;10898;48.072;11.682;2022-07-10T02:04:23;7.00;;;6.30;;
21472;SDS011;10898;48.072;11.682;2022-07-10T02:06:43;6.88;;;5.93;;
21472;SDS011;10898;48.072;11.682;2022-07-10T02:08:46;6.28;;;5.63;;
21472;SDS011;10898;48.072;11.682;2022-07-10T02:10:48;6.85;;;6.25;;
21472;SDS011;10898;48.072;11.682;2022-07-10T02:12:50;6.85;;;6.25;;
21472;SDS011;10898;48.072;11.682;2022-07-10T02:14:52;6.87;;;6.27;;
21472;SDS011;10898;48.072;11.682;2022-07-10T02:16:54;7.38;;;6.72;;
21472;SDS011;10898;48.072;11.682;2022-07-10T02:18:57;7.82;;;6.90;;
21472;SDS011;10898;48.072;11.682;2022-07-10T02:20:59;9.10;;;7.13;;
21472;SDS011;10898;48.072;11.682;2022-07-10T02:23:01;7.70;;;7.00;;
21472;SDS011;10898;48.072;11.682;2022-07-10T02:25:03;7.03;;;6.32;;
21472;SDS011;10898;48.072;11.682;2022-07-10T02:27:05;7.07;;;6.50;;
21472;SDS011;10898;48.072;11.682;2022-07-10T02:29:07;9.32;;;6.65;;
21472;SDS011;10898;48.072;11.682;2022-07-10T02:31:09;8.20;;;7.47;;
21472;SDS011;10898;48.072;11.682;2022-07-10T02:33:11;8.00;;;7.28;;
21472;SDS011;10898;48.072;11.682;2022-07-10T02:35:13;7.20;;;6.60;;
21472;SDS011;10898;48.072;11.682;2022-07-10T02:37:15;6.93;;;6.23;;
21472;SDS011;10898;48.072;11.682;2022-07-10T02:39:17;7.40;;;6.63;;
21472;SDS011;10898;48.072;11.682;2022-07-10T02:41:20;8.48;;;7.78;;
21472;SDS011;10898;48.072;11.682;2022-07-10T02:43:23;7.47;;;6.78;;
21472;SDS011;10898;48.072;11.682;2022-07-10T02:45:25;7.95;;;7.15;;
21472;SDS011;10898;48.072;11.682;2022-07-10T02:47:27;8.32;;;7.10;;
21472;SDS011;10898;48.072;11.682;2022-07-10T02:49:29;8.18;;;7.38;;
21472;SDS011;10898;48.072;11.682;2022-07-10T02:51:31;8.03;;;7.33;;
21472;SDS011;10898;48.072;11.682;2022-07-10T02:53:33;7.88;;;7.07;;
21472;SDS011;10898;48.072;11.682;2022-07-10T02:55:35;9.13;;;7.57;;
21472;SDS011;10898;48.072;11.682;2022-07-10T02:57:37;8.20;;;7.40;;
21472;SDS011;10898;48.072;11.682;2022-07-10T02:59:39;9.65;;;7.32;;
21472;SDS011;10898;48.072;11.682;2022-07-10T03:01:41;8.35;;;7.55;;
21472;SDS011;10898;48.072;11.682;2022-07-10T03:03:43;9.15;;;7.40;;
21472;SDS011;10898;48.072;11.682;2022-07-10T03:05:45;9.52;;;8.63;;
21472;SDS011;10898;48.072;11.682;2022-07-10T03:07:47;8.18;;;7.15;;
21472;SDS011;10898;48.072;11.682;2022-07-10T03:09:49;10.27;;;8.25;;
21472;SDS011;10898;48.072;11.682;2022-07-10T03:11:51;9.27;;;8.37;;
21472;SDS011;10898;48.072;11.682;2022-07-10T03:13:53;8.45;;;7.65;;
21472;SDS011;10898;48.072;11.682;2022-07-10T03:15:56;7.47;;;6.82;;
21472;SDS011;10898;48.072;11.682;2022-07-10T03:17:58;8.40;;;7.72;;
21472;SDS011;10898;48.072;11.682;2022-07-10T03:20:00;8.63;;;7.20;;
21472;SDS011;10898;48.072;11.682;2022-07-10T03:22:02;8.18;;;7.40;;
21472;SDS011;10898;48.072;11.682;2022-07-10T03:24:04;8.48;;;7.65;;
21472;SDS011;10898;48.072;11.682;2022-07-10T03:26:07;8.32;;;7.53;;
21472;SDS011;10898;48.072;11.682;2022-07-10T03:28:09;7.78;;;7.07;;
21472;SDS011;10898;48.072;11.682;2022-07-10T03:30:11;8.57;;;7.87;;
21472;SDS011;10898;48.072;11.682;2022-07-10T03:32:13;8.73;;;7.93;;
21472;SDS011;10898;48.072;11.682;2022-07-10T03:34:15;8.30;;;7.55;;
21472;SDS011;10898;48.072;11.682;2022-07-10T03:36:17;8.83;;;7.33;;
21472;SDS011;10898;48.072;11.682;2022-07-10T03:38:19;10.38;;;7.65;;
21472;SDS011;10898;48.072;11.682;2022-07-10T03:40:21;8.45;;;7.32;;
21472;SDS011;10898;48.072;11.682;2022-07-10T03:42:24;8.82;;;8.02;;
21472;SDS011;10898;48.072;11.682;2022-07-10T03:44:26;8.43;;;7.63;;
21472;SDS011;10898;48.072;11.682;2022-07-10T03:46:28;8.10;;;6.93;;
21472;SDS011;10898;48.072;11.682;2022-07-10T03:48:30;8.75;;;7.38;;
21472;SDS011;10898;48.072;11.682;2022-07-10T03:50:33;8.30;;;7.50;;
21472;SDS011;10898;48.072;11.682;2022-07-10T03:52:35;8.20;;;7.00;;
21472;SDS011;10898;48.072;11.682;2022-07-10T03:54:37;6.95;;;6.30;;
21472;SDS011;10898;48.072;11.682;2022-07-10T03:56:39;9.30;;;7.82;;
21472;SDS011;10898;48.072;11.682;2022-07-10T03:59:00;8.90;;;7.55;;
21472;SDS011;10898;48.072;11.682;2022-07-10T04:01:02;7.82;;;7.13;;
21472;SDS011;10898;48.072;11.682;2022-07-10T04:03:05;8.73;;;7.83;;
21472;SDS011;10898;48.072;11.682;2022-07-10T04:05:08;9.10;;;7.28;;
21472;SDS011;10898;48.072;11.682;2022-07-10T04:09:14;10.10;;;7.47;;
21472;SDS011;10898;48.072;11.682;2022-07-10T04:11:16;7.53;;;6.83;;
21472;SDS011;10898;48.072;11.682;2022-07-10T04:13:18;7.70;;;7.00;;
21472;SDS011;10898;48.072;11.682;2022-07-10T04:15:20;7.20;;;6.60;;
21472;SDS011;10898;48.072;11.682;2022-07-10T04:17:22;8.00;;;6.75;;
21472;SDS011;10898;48.072;11.682;2022-07-10T04:19:24;7.15;;;6.47;;
21472;SDS011;10898;48.072;11.682;2022-07-10T04:21:26;7.72;;;6.90;;
21472;SDS011;10898;48.072;11.682;2022-07-10T04:23:28;8.10;;;6.50;;
21472;SDS011;10898;48.072;11.682;2022-07-10T04:25:30;7.28;;;6.60;;
21472;SDS011;10898;48.072;11.682;2022-07-10T04:27:32;10.63;;;6.90;;
21472;SDS011;10898;48.072;11.682;2022-07-10T04:29:37;6.32;;;5.72;;
21472;SDS011;10898;48.072;11.682;2022-07-10T04:31:39;6.73;;;6.13;;
21472;SDS011;10898;48.072;11.682;2022-07-10T04:33:41;7.05;;;6.45;;
21472;SDS011;10898;48.072;11.682;2022-07-10T04:35:43;6.97;;;6.27;;
21472;SDS011;10898;48.072;11.682;2022-07-10T04:37:46;7.13;;;5.82;;
21472;SDS011;10898;48.072;11.682;2022-07-10T04:39:48;7.38;;;6.68;;
21472;SDS011;10898;48.072;11.682;2022-07-10T04:41:49;7.13;;;6.53;;
21472;SDS011;10898;48.072;11.682;2022-07-10T04:43:51;7.33;;;6.63;;
21472;SDS011;10898;48.072;11.682;2022-07-10T04:45:53;7.22;;;6.53;;
21472;SDS011;10898;48.072;11.682;2022-07-10T04:47:56;6.53;;;5.90;;
21472;SDS011;10898;48.072;11.682;2022-07-10T04:49:58;7.60;;;6.90;;
21472;SDS011;10898;48.072;11.682;2022-07-10T04:54:02;8.48;;;7.00;;
21472;SDS011;10898;48.072;11.682;2022-07-10T04:56:04;7.28;;;6.57;;
21472;SDS011;10898;48.072;11.682;2022-07-10T04:58:07;7.55;;;6.85;;
21472;SDS011;10898;48.072;11.682;2022-07-10T05:00:09;7.33;;;6.73;;
21472;SDS011;10898;48.072;11.682;2022-07-10T05:02:11;7.72;;;6.40;;
21472;SDS011;10898;48.072;11.682;2022-07-10T05:04:14;6.53;;;5.80;;
21472;SDS011;10898;48.072;11.682;2022-07-10T05:06:16;7.03;;;6.43;;
21472;SDS011;10898;48.072;11.682;2022-07-10T05:08:18;7.57;;;6.63;;
21472;SDS011;10898;48.072;11.682;2022-07-10T05:10:20;7.57;;;6.87;;
21472;SDS011;10898;48.072;11.682;2022-07-10T05:12:22;7.10;;;6.50;;
21472;SDS011;10898;48.072;11.682;2022-07-10T05:14:24;6.97;;;6.38;;
21472;SDS011;10898;48.072;11.682;2022-07-10T05:16:27;7.68;;;6.82;;
21472;SDS011;10898;48.072;11.682;2022-07-10T05:18:29;7.53;;;6.82;;
21472;SDS011;10898;48.072;11.682;2022-07-10T05:20:31;6.93;;;6.28;;
21472;SDS011;10898;48.072;11.682;2022-07-10T05:22:35;7.78;;;7.03;;
21472;SDS011;10898;48.072;11.682;2022-07-10T05:24:37;6.93;;;5.93;;
21472;SDS011;10898;48.072;11.682;2022-07-10T05:26:39;7.93;;;7.07;;
21472;SDS011;10898;48.072;11.682;2022-07-10T05:28:41;7.30;;;6.70;;
21472;SDS011;10898;48.072;11.682;2022-07-10T05:30:43;7.93;;;7.20;;
21472;SDS011;10898;48.072;11.682;2022-07-10T05:32:45;8.02;;;7.22;;
21472;SDS011;10898;48.072;11.682;2022-07-10T05:34:48;8.38;;;7.65;;
21472;SDS011;10898;48.072;11.682;2022-07-10T05:36:49;9.60;;;8.07;;
21472;SDS011;10898;48.072;11.682;2022-07-10T05:38:51;11.70;;;8.23;;
21472;SDS011;10898;48.072;11.682;2022-07-10T05:40:54;9.02;;;8.05;;
21472;SDS011;10898;48.072;11.682;2022-07-10T05:42:56;8.80;;;8.00;;
21472;SDS011;10898;48.072;11.682;2022-07-10T05:44:58;9.35;;;8.45;;
21472;SDS011;10898;48.072;11.682;2022-07-10T05:47:00;9.20;;;8.38;;
21472;SDS011;10898;48.072;11.682;2022-07-10T05:49:02;10.18;;;8.90;;
21472;SDS011;10898;48.072;11.682;2022-07-10T05:51:04;9.93;;;8.43;;
21472;SDS011;10898;48.072;11.682;2022-07-10T05:53:26;9.52;;;8.52;;
21472;SDS011;10898;48.072;11.682;2022-07-10T05:55:28;10.20;;;9.13;;
21472;SDS011;10898;48.072;11.682;2022-07-10T05:57:30;9.60;;;8.13;;
21472;SDS011;10898;48.072;11.682;2022-07-10T06:01:35;8.55;;;7.70;;
21472;SDS011;10898;48.072;11.682;2022-07-10T06:03:37;10.13;;;9.18;;
21472;SDS011;10898;48.072;11.682;2022-07-10T06:05:41;9.52;;;8.63;;
21472;SDS011;10898;48.072;11.682;2022-07-10T06:07:43;10.13;;;9.13;;
21472;SDS011;10898;48.072;11.682;2022-07-10T06:09:45;9.57;;;8.57;;
21472;SDS011;10898;48.072;11.682;2022-07-10T06:11:47;10.18;;;9.27;;
21472;SDS011;10898;48.072;11.682;2022-07-10T06:13:50;9.82;;;8.85;;
21472;SDS011;10898;48.072;11.682;2022-07-10T06:15:52;9.10;;;8.23;;
21472;SDS011;10898;48.072;11.682;2022-07-10T06:17:56;8.95;;;8.15;;
21472;SDS011;10898;48.072;11.682;2022-07-10T06:19:59;9.38;;;8.57;;
21472;SDS011;10898;48.072;11.682;2022-07-10T06:22:01;9.90;;;8.90;;
21472;SDS011;10898;48.072;11.682;2022-07-10T06:24:22;9.20;;;8.38;;
21472;SDS011;10898;48.072;11.682;2022-07-10T06:26:24;11.75;;;8.93;;
21472;SDS011;10898;48.072;11.682;2022-07-10T06:28:26;8.88;;;7.80;;
21472;SDS011;10898;48.072;11.682;2022-07-10T06:30:28;9.23;;;8.27;;
21472;SDS011;10898;48.072;11.682;2022-07-10T06:32:30;8.82;;;8.02;;
21472;SDS011;10898;48.072;11.682;2022-07-10T06:34:32;8.65;;;7.95;;
21472;SDS011;10898;48.072;11.682;2022-07-10T06:36:34;9.20;;;8.40;;
21472;SDS011;10898;48.072;11.682;2022-07-10T06:38:37;8.50;;;7.70;;
21472;SDS011;10898;48.072;11.682;2022-07-10T06:40:39;8.23;;;7.53;;
21472;SDS011;10898;48.072;11.682;2022-07-10T06:42:43;8.02;;;7.22;;
21472;SDS011;10898;48.072;11.682;2022-07-10T06:44:45;9.35;;;8.38;;
21472;SDS011;10898;48.072;11.682;2022-07-10T06:46:47;10.60;;;7.80;;
21472;SDS011;10898;48.072;11.682;2022-07-10T06:49:09;8.00;;;7.22;;
21472;SDS011;10898;48.072;11.682;2022-07-10T06:51:11;8.30;;;7.60;;
21472;SDS011;10898;48.072;11.682;2022-07-10T06:53:18;8.80;;;7.90;;
21472;SDS011;10898;48.072;11.682;2022-07-10T06:55:25;8.57;;;7.78;;
21472;SDS011;10898;48.072;11.682;2022-07-10T06:57:28;7.97;;;7.32;;
21472;SDS011;10898;48.072;11.682;2022-07-10T06:59:30;8.48;;;7.53;;
21472;SDS011;10898;48.072;11.682;2022-07-10T07:01:32;9.47;;;8.47;;
21472;SDS011;10898;48.072;11.682;2022-07-10T07:03:34;7.40;;;6.70;;
21472;SDS011;10898;48.072;11.682;2022-07-10T07:05:36;8.10;;;7.30;;
21472;SDS011;10898;48.072;11.682;2022-07-10T07:07:39;7.88;;;7.20;;
21472;SDS011;10898;48.072;11.682;2022-07-10T07:09:42;8.00;;;7.30;;
21472;SDS011;10898;48.072;11.682;2022-07-10T07:11:45;8.98;;;7.28;;
21472;SDS011;10898;48.072;11.682;2022-07-10T07:13:47;8.27;;;7.60;;
21472;SDS011;10898;48.072;11.682;2022-07-10T07:15:49;9.27;;;8.47;;
21472;SDS011;10898;48.072;11.682;2022-07-10T07:18:00;9.15;;;8.35;;
21472;SDS011;10898;48.072;11.682;2022-07-10T07:20:14;8.10;;;7.38;;
21472;SDS011;10898;48.072;11.682;2022-07-10T07:22:34;8.20;;;7.50;;
21472;SDS011;10898;48.072;11.682;2022-07-10T07:24:56;10.45;;;8.55;;
21472;SDS011;10898;48.072;11.682;2022-07-10T07:26:57;8.50;;;7.67;;
21472;SDS011;10898;48.072;11.682;2022-07-10T07:28:59;8.07;;;7.27;;
21472;SDS011;10898;48.072;11.682;2022-07-10T07:31:01;8.40;;;7.70;;
21472;SDS011;10898;48.072;11.682;2022-07-10T07:33:04;9.27;;;8.40;;
21472;SDS011;10898;48.072;11.682;2022-07-10T07:35:06;8.38;;;7.68;;
21472;SDS011;10898;48.072;11.682;2022-07-10T07:37:09;10.27;;;7.97;;
21472;SDS011;10898;48.072;11.682;2022-07-10T07:39:11;9.43;;;8.43;;
21472;SDS011;10898;48.072;11.682;2022-07-10T07:41:13;8.43;;;7.72;;
21472;SDS011;10898;48.072;11.682;2022-07-10T07:43:15;8.53;;;7.50;;
21472;SDS011;10898;48.072;11.682;2022-07-10T07:45:19;8.30;;;7.55;;
21472;SDS011;10898;48.072;11.682;2022-07-10T07:47:21;10.20;;;7.55;;
21472;SDS011;10898;48.072;11.682;2022-07-10T07:49:23;8.30;;;7.47;;
21472;SDS011;10898;48.072;11.682;2022-07-10T07:51:25;7.60;;;7.00;;
21472;SDS011;10898;48.072;11.682;2022-07-10T07:53:27;7.25;;;6.65;;
21472;SDS011;10898;48.072;11.682;2022-07-10T07:55:30;10.32;;;8.13;;
21472;SDS011;10898;48.072;11.682;2022-07-10T07:57:33;8.00;;;7.30;;
21472;SDS011;10898;48.072;11.682;2022-07-10T07:59:35;8.10;;;6.47;;
21472;SDS011;10898;48.072;11.682;2022-07-10T08:01:37;7.25;;;6.55;;
21472;SDS011;10898;48.072;11.682;2022-07-10T08:03:39;8.50;;;7.75;;
21472;SDS011;10898;48.072;11.682;2022-07-10T08:06:01;7.78;;;7.07;;
21472;SDS011;10898;48.072;11.682;2022-07-10T08:08:03;7.85;;;6.70;;
21472;SDS011;10898;48.072;11.682;2022-07-10T08:10:09;9.00;;;6.93;;
21472;SDS011;10898;48.072;11.682;2022-07-10T08:12:16;7.07;;;6.10;;
21472;SDS011;10898;48.072;11.682;2022-07-10T08:14:18;6.70;;;6.10;;
21472;SDS011;10898;48.072;11.682;2022-07-10T08:16:20;8.30;;;5.70;;
21472;SDS011;10898;48.072;11.682;2022-07-10T08:18:22;6.22;;;5.70;;
21472;SDS011;10898;48.072;11.682;2022-07-10T08:20:25;6.88;;;5.88;;
21472;SDS011;10898;48.072;11.682;2022-07-10T08:24:29;6.25;;;4.68;;
21472;SDS011;10898;48.072;11.682;2022-07-10T08:26:31;5.35;;;4.85;;
21472;SDS011;10898;48.072;11.682;2022-07-10T08:28:33;6.80;;;5.35;;
21472;SDS011;10898;48.072;11.682;2022-07-10T08:30:35;5.50;;;4.43;;
21472;SDS011;10898;48.072;11.682;2022-07-10T08:32:38;6.45;;;3.95;;
21472;SDS011;10898;48.072;11.682;2022-07-10T08:36:42;4.70;;;3.90;;
21472;SDS011;10898;48.072;11.682;2022-07-10T08:38:52;7.15;;;4.38;;
21472;SDS011;10898;48.072;11.682;2022-07-10T08:40:57;5.32;;;3.90;;
21472;SDS011;10898;48.072;11.682;2022-07-10T08:43:00;4.75;;;3.55;;
21472;SDS011;10898;48.072;11.682;2022-07-10T08:45:02;5.60;;;3.83;;
21472;SDS011;10898;48.072;11.682;2022-07-10T08:47:05;4.63;;;3.42;;
21472;SDS011;10898;48.072;11.682;2022-07-10T08:49:08;5.03;;;4.38;;
21472;SDS011;10898;48.072;11.682;2022-07-10T08:51:35;3.60;;;3.30;;
21472;SDS011;10898;48.072;11.682;2022-07-10T08:53:39;4.90;;;3.63;;
21472;SDS011;10898;48.072;11.682;2022-07-10T08:55:42;4.30;;;3.70;;
21472;SDS011;10898;48.072;11.682;2022-07-10T08:57:44;5.22;;;3.67;;
21472;SDS011;10898;48.072;11.682;2022-07-10T08:59:47;4.93;;;3.55;;
21472;SDS011;10898;48.072;11.682;2022-07-10T09:01:49;3.55;;;3.25;;
21472;SDS011;10898;48.072;11.682;2022-07-10T09:03:52;4.65;;;3.17;;
21472;SDS011;10898;48.072;11.682;2022-07-10T09:05:54;3.93;;;2.97;;
21472;SDS011;10898;48.072;11.682;2022-07-10T09:07:56;4.13;;;2.92;;
21472;SDS011;10898;48.072;11.682;2022-07-10T09:09:58;4.90;;;2.83;;
21472;SDS011;10898;48.072;11.682;2022-07-10T09:12:00;3.20;;;2.63;;
21472;SDS011;10898;48.072;11.682;2022-07-10T09:14:03;4.00;;;2.40;;
21472;SDS011;10898;48.072;11.682;2022-07-10T09:16:19;4.13;;;2.58;;
21472;SDS011;10898;48.072;11.682;2022-07-10T09:18:23;5.03;;;2.50;;
21472;SDS011;10898;48.072;11.682;2022-07-10T09:20:27;3.60;;;2.65;;
21472;SDS011;10898;48.072;11.682;2022-07-10T09:22:31;5.18;;;2.45;;
21472;SDS011;10898;48.072;11.682;2022-07-10T09:24:41;4.60;;;2.35;;
21472;SDS011;10898;48.072;11.682;2022-07-10T09:29:11;3.67;;;2.80;;
21472;SDS011;10898;48.072;11.682;2022-07-10T09:31:14;2.60;;;2.40;;
21472;SDS011;10898;48.072;11.682;2022-07-10T09:35:26;4.50;;;2.60;;
21472;SDS011;10898;48.072;11.682;2022-07-10T09:37:47;6.07;;;2.35;;
21472;SDS011;10898;48.072;11.682;2022-07-10T09:40:23;4.38;;;2.40;;
21472;SDS011;10898;48.072;11.682;2022-07-10T09:42:34;4.30;;;2.15;;
21472;SDS011;10898;48.072;11.682;2022-07-10T09:44:36;3.38;;;2.08;;
21472;SDS011;10898;48.072;11.682;2022-07-10T09:46:38;4.03;;;2.10;;
21472;SDS011;10898;48.072;11.682;2022-07-10T09:48:44;2.35;;;2.00;;
21472;SDS011;10898;48.072;11.682;2022-07-10T09:50:46;5.15;;;2.20;;
21472;SDS011;10898;48.072;11.682;2022-07-10T09:52:49;3.60;;;1.90;;
21472;SDS011;10898;48.072;11.682;2022-07-10T09:54:55;4.55;;;1.70;;
21472;SDS011;10898;48.072;11.682;2022-07-10T09:56:58;2.67;;;1.73;;
21472;SDS011;10898;48.072;11.682;2022-07-10T09:59:07;3.05;;;1.95;;
21472;SDS011;10898;48.072;11.682;2022-07-10T10:01:14;4.63;;;1.83;;
21472;SDS011;10898;48.072;11.682;2022-07-10T10:03:17;5.90;;;2.00;;
21472;SDS011;10898;48.072;11.682;2022-07-10T10:05:22;2.63;;;1.90;;
21472;SDS011;10898;48.072;11.682;2022-07-10T10:07:58;3.88;;;1.95;;
21472;SDS011;10898;48.072;11.682;2022-07-10T10:10:05;2.90;;;1.60;;
21472;SDS011;10898;48.072;11.682;2022-07-10T10:12:12;3.90;;;1.85;;
21472;SDS011;10898;48.072;11.682;2022-07-10T10:14:18;3.30;;;1.88;;
21472;SDS011;10898;48.072;11.682;2022-07-10T10:16:22;3.90;;;1.83;;
21472;SDS011;10898;48.072;11.682;2022-07-10T10:18:27;1.92;;;1.70;;
21472;SDS011;10898;48.072;11.682;2022-07-10T10:20:32;5.00;;;1.73;;
21472;SDS011;10898;48.072;11.682;2022-07-10T10:22:44;4.50;;;1.92;;
21472;SDS011;10898;48.072;11.682;2022-07-10T10:24:47;3.60;;;1.90;;
21472;SDS011;10898;48.072;11.682;2022-07-10T10:26:50;3.53;;;1.88;;
21472;SDS011;10898;48.072;11.682;2022-07-10T10:28:54;2.50;;;1.63;;
21472;SDS011;10898;48.072;11.682;2022-07-10T10:30:59;2.30;;;1.60;;
21472;SDS011;10898;48.072;11.682;2022-07-10T10:33:02;2.83;;;1.88;;
21472;SDS011;10898;48.072;11.682;2022-07-10T10:35:04;2.47;;;1.70;;
21472;SDS011;10898;48.072;11.682;2022-07-10T10:39:54;2.95;;;1.77;;
21472;SDS011;10898;48.072;11.682;2022-07-10T10:41:59;6.50;;;1.58;;
21472;SDS011;10898;48.072;11.682;2022-07-10T10:46:23;3.75;;;1.55;;
21472;SDS011;10898;48.072;11.682;2022-07-10T10:48:26;2.88;;;1.67;;
21472;SDS011;10898;48.072;11.682;2022-07-10T10:50:42;6.10;;;1.77;;
21472;SDS011;10898;48.072;11.682;2022-07-10T10:52:59;2.53;;;1.45;;
21472;SDS011;10898;48.072;11.682;2022-07-10T10:55:03;5.88;;;1.48;;
21472;SDS011;10898;48.072;11.682;2022-07-10T10:57:12;7.18;;;1.60;;
21472;SDS011;10898;48.072;11.682;2022-07-10T11:01:48;5.15;;;1.50;;
21472;SDS011;10898;48.072;11.682;2022-07-10T11:04:29;1.85;;;1.50;;
21472;SDS011;10898;48.072;11.682;2022-07-10T11:06:44;3.67;;;1.35;;
21472;SDS011;10898;48.072;11.682;2022-07-10T11:08:51;4.65;;;1.50;;
21472;SDS011;10898;48.072;11.682;2022-07-10T11:10:53;4.40;;;1.40;;
21472;SDS011;10898;48.072;11.682;2022-07-10T11:13:14;4.05;;;1.50;;
21472;SDS011;10898;48.072;11.682;2022-07-10T11:15:17;2.08;;;1.30;;
21472;SDS011;10898;48.072;11.682;2022-07-10T11:17:24;3.55;;;1.70;;
21472;SDS011;10898;48.072;11.682;2022-07-10T11:19:30;5.72;;;1.45;;
21472;SDS011;10898;48.072;11.682;2022-07-10T11:21:38;2.55;;;1.40;;
21472;SDS011;10898;48.072;11.682;2022-07-10T11:23:51;4.05;;;1.70;;
21472;SDS011;10898;48.072;11.682;2022-07-10T11:26:08;4.60;;;1.42;;
21472;SDS011;10898;48.072;11.682;2022-07-10T11:28:21;3.03;;;1.60;;
21472;SDS011;10898;48.072;11.682;2022-07-10T11:30:27;1.65;;;1.20;;
21472;SDS011;10898;48.072;11.682;2022-07-10T11:32:29;1.30;;;1.20;;
21472;SDS011;10898;48.072;11.682;2022-07-10T11:34:34;1.40;;;1.30;;
21472;SDS011;10898;48.072;11.682;2022-07-10T11:36:40;2.28;;;1.42;;
21472;SDS011;10898;48.072;11.682;2022-07-10T11:38:43;2.33;;;1.80;;
21472;SDS011;10898;48.072;11.682;2022-07-10T11:40:45;2.40;;;1.33;;
21472;SDS011;10898;48.072;11.682;2022-07-10T11:42:57;6.63;;;1.80;;
21472;SDS011;10898;48.072;11.682;2022-07-10T11:45:20;2.60;;;1.60;;
21472;SDS011;10898;48.072;11.682;2022-07-10T11:47:23;2.90;;;1.45;;
21472;SDS011;10898;48.072;11.682;2022-07-10T11:49:25;3.42;;;1.50;;
21472;SDS011;10898;48.072;11.682;2022-07-10T11:51:35;2.10;;;1.40;;
21472;SDS011;10898;48.072;11.682;2022-07-10T11:53:38;3.72;;;1.55;;
21472;SDS011;10898;48.072;11.682;2022-07-10T11:55:40;3.80;;;1.40;;
21472;SDS011;10898;48.072;11.682;2022-07-10T11:57:42;3.22;;;1.25;;
21472;SDS011;10898;48.072;11.682;2022-07-10T11:59:51;1.85;;;1.60;;
21472;SDS011;10898;48.072;11.682;2022-07-10T12:01:54;3.25;;;1.33;;
21472;SDS011;10898;48.072;11.682;2022-07-10T12:04:06;2.25;;;1.30;;
21472;SDS011;10898;48.072;11.682;2022-07-10T12:06:10;3.15;;;1.30;;
21472;SDS011;10898;48.072;11.682;2022-07-10T12:08:12;1.65;;;1.33;;
21472;SDS011;10898;48.072;11.682;2022-07-10T12:10:15;3.00;;;1.30;;
21472;SDS011;10898;48.072;11.682;2022-07-10T12:12:22;3.75;;;1.55;;
21472;SDS011;10898;48.072;11.682;2022-07-10T12:14:25;1.40;;;1.30;;
21472;SDS011;10898;48.072;11.682;2022-07-10T12:16:27;3.03;;;1.40;;
21472;SDS011;10898;48.072;11.682;2022-07-10T12:18:37;3.47;;;1.45;;
21472;SDS011;10898;48.072;11.682;2022-07-10T12:20:42;3.13;;;1.45;;
21472;SDS011;10898;48.072;11.682;2022-07-10T12:22:47;2.13;;;1.27;;
21472;SDS011;10898;48.072;11.682;2022-07-10T12:24:49;5.32;;;1.42;;
21472;SDS011;10898;48.072;11.682;2022-07-10T12:26:52;1.92;;;1.55;;
21472;SDS011;10898;48.072;11.682;2022-07-10T12:28:56;1.90;;;1.58;;
21472;SDS011;10898;48.072;11.682;2022-07-10T12:30:59;1.35;;;1.25;;
21472;SDS011;10898;48.072;11.682;2022-07-10T12:35:10;2.03;;;1.25;;
21472;SDS011;10898;48.072;11.682;2022-07-10T12:37:16;1.95;;;1.00;;
21472;SDS011;10898;48.072;11.682;2022-07-10T12:41:24;3.50;;;1.55;;
21472;SDS011;10898;48.072;11.682;2022-07-10T12:43:27;2.60;;;1.20;;
21472;SDS011;10898;48.072;11.682;2022-07-10T12:45:30;1.63;;;1.13;;
21472;SDS011;10898;48.072;11.682;2022-07-10T12:47:42;2.63;;;1.30;;
21472;SDS011;10898;48.072;11.682;2022-07-10T12:51:50;3.53;;;1.50;;
21472;SDS011;10898;48.072;11.682;2022-07-10T12:56:36;2.72;;;1.35;;
21472;SDS011;10898;48.072;11.682;2022-07-10T12:58:43;3.80;;;0.95;;